Columbia, Washington
Current Conditions -  °F | °C
As of 4:53 AM on Friday 24 Oct 2014 (Local Time) from KBFI Reporting Station
Overcast Overcast  
Wind Chill: 52°   Ceiling: 5000
Heat Index: 52°   Visibility: 10mi
Dew Point: 45°   Wind: 6mph
Humidity: 77%   Direction: 140°SE
Pressure: 30.04"   Gusts: NA
Location:  47.5384°N, 122.277°W
Report Text: KBFI 241153Z 14005KT 10SM SCT043 OVC050 11/07 A3004 RMK AO2 SLP171 60002 70035 T01110072 10111 20100 50002
Loading
Personal Weather Stations






























Interactive Weather Map
Tropical Storm Tracking
New forecast layout! Learn more

10-Day Weather Forecast

Advertisements
Track Severe Weather on mobile